sensor_id;sensor_type;location;lat;lon;timestamp;pressure;altitude;pressure_sealevel;temperature;humidity
68594;BME280;55563;52.416;13.548;2023-03-19T00:01:04;100915.56;;;8.12;100.00
68594;BME280;55563;52.416;13.548;2023-03-19T00:03:05;100914.16;;;8.21;100.00
68594;BME280;55563;52.416;13.548;2023-03-19T00:05:06;100910.75;;;8.20;100.00
68594;BME280;55563;52.416;13.548;2023-03-19T00:07:07;100909.94;;;8.31;100.00
68594;BME280;55563;52.416;13.548;2023-03-19T00:09:07;100904.22;;;8.06;100.00
68594;BME280;55563;52.416;13.548;2023-03-19T00:11:10;100905.53;;;7.92;100.00
68594;BME280;55563;52.416;13.548;2023-03-19T00:13:11;100916.34;;;7.96;100.00
68594;BME280;55563;52.416;13.548;2023-03-19T00:15:12;100907.72;;;7.83;100.00
68594;BME280;55563;52.416;13.548;2023-03-19T00:17:14;100907.34;;;7.92;100.00
68594;BME280;55563;52.416;13.548;2023-03-19T00:19:15;100903.75;;;7.81;100.00
68594;BME280;55563;52.416;13.548;2023-03-19T00:21:16;100903.19;;;7.79;100.00
68594;BME280;55563;52.416;13.548;2023-03-19T00:23:17;100901.03;;;7.76;100.00
68594;BME280;55563;52.416;13.548;2023-03-19T00:25:18;100908.53;;;7.84;100.00
68594;BME280;55563;52.416;13.548;2023-03-19T00:27:19;100901.47;;;7.84;100.00
68594;BME280;55563;52.416;13.548;2023-03-19T00:29:20;100896.84;;;7.75;100.00
68594;BME280;55563;52.416;13.548;2023-03-19T00:31:22;100893.00;;;7.66;100.00
68594;BME280;55563;52.416;13.548;2023-03-19T00:33:23;100902.78;;;7.59;100.00
68594;BME280;55563;52.416;13.548;2023-03-19T00:35:24;100906.63;;;7.68;100.00
68594;BME280;55563;52.416;13.548;2023-03-19T00:37:25;100902.25;;;7.57;100.00
68594;BME280;55563;52.416;13.548;2023-03-19T00:39:26;100904.97;;;7.50;100.00
68594;BME280;55563;52.416;13.548;2023-03-19T00:41:28;100909.88;;;7.47;100.00
68594;BME280;55563;52.416;13.548;2023-03-19T00:43:29;100904.88;;;7.45;100.00
68594;BME280;55563;52.416;13.548;2023-03-19T00:45:30;100897.94;;;7.39;100.00
68594;BME280;55563;52.416;13.548;2023-03-19T00:47:31;100905.72;;;7.22;100.00
68594;BME280;55563;52.416;13.548;2023-03-19T00:49:31;100903.84;;;7.58;100.00
68594;BME280;55563;52.416;13.548;2023-03-19T00:51:32;100906.53;;;7.63;100.00
68594;BME280;55563;52.416;13.548;2023-03-19T00:53:38;100910.41;;;7.60;100.00
68594;BME280;55563;52.416;13.548;2023-03-19T00:55:39;100904.06;;;7.56;100.00
68594;BME280;55563;52.416;13.548;2023-03-19T00:57:40;100906.53;;;7.63;100.00
68594;BME280;55563;52.416;13.548;2023-03-19T00:59:41;100897.94;;;7.39;100.00
68594;BME280;55563;52.416;13.548;2023-03-19T01:01:42;100905.34;;;7.42;100.00
68594;BME280;55563;52.416;13.548;2023-03-19T01:03:43;100913.84;;;7.49;100.00
68594;BME280;55563;52.416;13.548;2023-03-19T01:05:47;100917.34;;;7.66;100.00
68594;BME280;55563;52.416;13.548;2023-03-19T01:07:48;100916.44;;;7.61;100.00
68594;BME280;55563;52.416;13.548;2023-03-19T01:09:49;100917.16;;;7.44;100.00
68594;BME280;55563;52.416;13.548;2023-03-19T01:11:49;100918.84;;;7.39;100.00
68594;BME280;55563;52.416;13.548;2023-03-19T01:13:50;100918.09;;;7.38;100.00
68594;BME280;55563;52.416;13.548;2023-03-19T01:15:51;100910.47;;;7.25;100.00
68594;BME280;55563;52.416;13.548;2023-03-19T01:17:54;100912.84;;;7.38;100.00
68594;BME280;55563;52.416;13.548;2023-03-19T01:19:55;100908.28;;;7.45;100.00
68594;BME280;55563;52.416;13.548;2023-03-19T01:21:56;100915.69;;;7.37;100.00
68594;BME280;55563;52.416;13.548;2023-03-19T01:23:58;100915.34;;;7.45;100.00
68594;BME280;55563;52.416;13.548;2023-03-19T01:26:00;100919.88;;;7.50;100.00
68594;BME280;55563;52.416;13.548;2023-03-19T01:28:02;100918.19;;;7.32;100.00
68594;BME280;55563;52.416;13.548;2023-03-19T01:30:04;100919.47;;;7.18;100.00
68594;BME280;55563;52.416;13.548;2023-03-19T01:32:25;100924.38;;;7.14;100.00
68594;BME280;55563;52.416;13.548;2023-03-19T01:34:46;100922.31;;;7.05;100.00
68594;BME280;55563;52.416;13.548;2023-03-19T01:36:50;100926.97;;;7.03;100.00
68594;BME280;55563;52.416;13.548;2023-03-19T01:38:57;100918.22;;;6.97;100.00
68594;BME280;55563;52.416;13.548;2023-03-19T01:40:58;100917.31;;;6.91;100.00
68594;BME280;55563;52.416;13.548;2023-03-19T01:43:21;100920.16;;;6.90;100.00
68594;BME280;55563;52.416;13.548;2023-03-19T01:45:35;100926.84;;;6.97;100.00
68594;BME280;55563;52.416;13.548;2023-03-19T01:47:57;100929.00;;;7.00;100.00
68594;BME280;55563;52.416;13.548;2023-03-19T01:50:24;100928.00;;;6.90;100.00
68594;BME280;55563;52.416;13.548;2023-03-19T01:52:43;100929.69;;;6.84;100.00
68594;BME280;55563;52.416;13.548;2023-03-19T01:54:54;100928.56;;;7.04;100.00
68594;BME280;55563;52.416;13.548;2023-03-19T01:57:15;100930.16;;;7.05;100.00
68594;BME280;55563;52.416;13.548;2023-03-19T01:59:37;100928.13;;;6.95;100.00
68594;BME280;55563;52.416;13.548;2023-03-19T02:02:24;100926.84;;;6.74;100.00
68594;BME280;55563;52.416;13.548;2023-03-19T02:04:30;100921.38;;;6.64;100.00
68594;BME280;55563;52.416;13.548;2023-03-19T02:06:31;100918.84;;;6.57;100.00
68594;BME280;55563;52.416;13.548;2023-03-19T02:08:34;100921.13;;;6.54;100.00
68594;BME280;55563;52.416;13.548;2023-03-19T02:10:36;100916.81;;;6.60;100.00
68594;BME280;55563;52.416;13.548;2023-03-19T02:12:37;100918.31;;;6.67;100.00
68594;BME280;55563;52.416;13.548;2023-03-19T02:14:38;100914.25;;;6.71;100.00
68594;BME280;55563;52.416;13.548;2023-03-19T02:16:39;100920.47;;;6.82;100.00
68594;BME280;55563;52.416;13.548;2023-03-19T02:18:41;100914.34;;;6.76;100.00
68594;BME280;55563;52.416;13.548;2023-03-19T02:20:59;100914.22;;;6.60;100.00
68594;BME280;55563;52.416;13.548;2023-03-19T02:27:50;100911.56;;;6.48;100.00
68594;BME280;55563;52.416;13.548;2023-03-19T02:29:51;100912.28;;;6.55;100.00
68594;BME280;55563;52.416;13.548;2023-03-19T02:31:54;100912.41;;;6.60;100.00
68594;BME280;55563;52.416;13.548;2023-03-19T02:34:06;100905.78;;;6.57;100.00
68594;BME280;55563;52.416;13.548;2023-03-19T02:36:28;100910.47;;;6.55;100.00
68594;BME280;55563;52.416;13.548;2023-03-19T02:38:32;100912.63;;;6.58;100.00
68594;BME280;55563;52.416;13.548;2023-03-19T02:40:37;100915.22;;;6.58;100.00
68594;BME280;55563;52.416;13.548;2023-03-19T02:42:40;100908.19;;;6.59;100.00
68594;BME280;55563;52.416;13.548;2023-03-19T02:44:42;100907.97;;;6.61;100.00
68594;BME280;55563;52.416;13.548;2023-03-19T02:46:42;100907.97;;;6.61;100.00
68594;BME280;55563;52.416;13.548;2023-03-19T02:48:43;100914.22;;;6.60;100.00
68594;BME280;55563;52.416;13.548;2023-03-19T02:50:44;100908.78;;;6.61;100.00
68594;BME280;55563;52.416;13.548;2023-03-19T02:52:45;100898.34;;;6.61;100.00
68594;BME280;55563;52.416;13.548;2023-03-19T02:54:48;100907.97;;;6.61;100.00
68594;BME280;55563;52.416;13.548;2023-03-19T02:56:49;100911.16;;;6.63;100.00
68594;BME280;55563;52.416;13.548;2023-03-19T02:58:51;100912.63;;;6.58;100.00
68594;BME280;55563;52.416;13.548;2023-03-19T03:00:52;100914.44;;;6.58;100.00
68594;BME280;55563;52.416;13.548;2023-03-19T03:02:56;100913.88;;;6.56;100.00
68594;BME280;55563;52.416;13.548;2023-03-19T03:04:58;100922.72;;;6.55;100.00
68594;BME280;55563;52.416;13.548;2023-03-19T03:06:59;100915.09;;;6.53;100.00
68594;BME280;55563;52.416;13.548;2023-03-19T03:09:00;100909.88;;;6.53;100.00
68594;BME280;55563;52.416;13.548;2023-03-19T03:11:01;100914.56;;;6.51;100.00
68594;BME280;55563;52.416;13.548;2023-03-19T03:13:03;100912.50;;;6.53;100.00
68594;BME280;55563;52.416;13.548;2023-03-19T03:15:05;100909.88;;;6.53;100.00
68594;BME280;55563;52.416;13.548;2023-03-19T03:17:08;100909.53;;;6.50;100.00
68594;BME280;55563;52.416;13.548;2023-03-19T03:19:09;100922.59;;;6.50;100.00
68594;BME280;55563;52.416;13.548;2023-03-19T03:21:10;100913.03;;;6.44;100.00
68594;BME280;55563;52.416;13.548;2023-03-19T03:23:11;100916.13;;;6.52;100.00
68594;BME280;55563;52.416;13.548;2023-03-19T03:25:12;100917.84;;;6.58;100.00
68594;BME280;55563;52.416;13.548;2023-03-19T03:27:14;100917.38;;;6.50;100.00
68594;BME280;55563;52.416;13.548;2023-03-19T03:29:15;100912.19;;;6.62;100.00
68594;BME280;55563;52.416;13.548;2023-03-19T03:31:16;100920.56;;;6.64;100.00
68594;BME280;55563;52.416;13.548;2023-03-19T03:33:17;100923.78;;;6.66;100.00
68594;BME280;55563;52.416;13.548;2023-03-19T03:35:17;100926.59;;;6.64;100.00
68594;BME280;55563;52.416;13.548;2023-03-19T03:37:21;100936.59;;;6.67;100.00
68594;BME280;55563;52.416;13.548;2023-03-19T03:39:22;100927.63;;;6.63;100.00
68594;BME280;55563;52.416;13.548;2023-03-19T03:41:23;100922.00;;;6.48;100.00
68594;BME280;55563;52.416;13.548;2023-03-19T03:43:24;100917.59;;;6.37;100.00
68594;BME280;55563;52.416;13.548;2023-03-19T03:45:26;100931.50;;;6.31;100.00
68594;BME280;55563;52.416;13.548;2023-03-19T03:47:27;100930.38;;;6.27;100.00
68594;BME280;55563;52.416;13.548;2023-03-19T03:49:27;100930.94;;;6.29;100.00
68594;BME280;55563;52.416;13.548;2023-03-19T03:51:29;100929.91;;;6.30;100.00
68594;BME280;55563;52.416;13.548;2023-03-19T03:53:30;100936.78;;;6.42;100.00
68594;BME280;55563;52.416;13.548;2023-03-19T03:55:31;100950.66;;;6.54;100.00
68594;BME280;55563;52.416;13.548;2023-03-19T03:57:32;100960.88;;;6.56;100.00
68594;BME280;55563;52.416;13.548;2023-03-19T03:59:33;100964.41;;;6.62;100.00
68594;BME280;55563;52.416;13.548;2023-03-19T04:01:34;100959.19;;;6.62;100.00
68594;BME280;55563;52.416;13.548;2023-03-19T04:03:35;100954.97;;;6.61;100.00
68594;BME280;55563;52.416;13.548;2023-03-19T04:05:35;100958.41;;;6.61;100.00
68594;BME280;55563;52.416;13.548;2023-03-19T04:07:37;100955.09;;;6.24;100.00
68594;BME280;55563;52.416;13.548;2023-03-19T04:09:38;100977.66;;;6.48;100.00
68594;BME280;55563;52.416;13.548;2023-03-19T04:11:40;100975.75;;;6.55;100.00
68594;BME280;55563;52.416;13.548;2023-03-19T04:13:41;100971.31;;;6.56;100.00
68594;BME280;55563;52.416;13.548;2023-03-19T04:15:42;100970.25;;;6.45;100.00
68594;BME280;55563;52.416;13.548;2023-03-19T04:17:43;100969.00;;;6.36;100.00
68594;BME280;55563;52.416;13.548;2023-03-19T04:19:45;100975.56;;;6.39;100.00
68594;BME280;55563;52.416;13.548;2023-03-19T04:21:46;100973.34;;;6.42;100.00
68594;BME280;55563;52.416;13.548;2023-03-19T04:23:47;100975.34;;;6.40;100.00
68594;BME280;55563;52.416;13.548;2023-03-19T04:25:48;100982.44;;;6.51;100.00
68594;BME280;55563;52.416;13.548;2023-03-19T04:27:48;100976.31;;;6.57;100.00
68594;BME280;55563;52.416;13.548;2023-03-19T04:29:49;100982.91;;;6.30;100.00
68594;BME280;55563;52.416;13.548;2023-03-19T04:31:51;100990.28;;;6.51;100.00
68594;BME280;55563;52.416;13.548;2023-03-19T04:33:52;100997.66;;;6.54;100.00
68594;BME280;55563;52.416;13.548;2023-03-19T04:35:53;100985.22;;;6.38;100.00
68594;BME280;55563;52.416;13.548;2023-03-19T04:37:55;100994.34;;;6.47;100.00
68594;BME280;55563;52.416;13.548;2023-03-19T04:39:55;100985.47;;;6.37;100.00
68594;BME280;55563;52.416;13.548;2023-03-19T04:41:56;100986.81;;;6.39;100.00
68594;BME280;55563;52.416;13.548;2023-03-19T04:44:01;100992.28;;;6.38;100.00
68594;BME280;55563;52.416;13.548;2023-03-19T04:46:03;100991.03;;;6.40;100.00
68594;BME280;55563;52.416;13.548;2023-03-19T04:48:04;100996.16;;;6.47;100.00
68594;BME280;55563;52.416;13.548;2023-03-19T04:50:09;100996.69;;;6.37;100.00
68594;BME280;55563;52.416;13.548;2023-03-19T04:52:09;100987.47;;;6.35;100.00
68594;BME280;55563;52.416;13.548;2023-03-19T04:54:10;100982.84;;;6.37;100.00
68594;BME280;55563;52.416;13.548;2023-03-19T04:56:11;100989.88;;;6.36;100.00
68594;BME280;55563;52.416;13.548;2023-03-19T04:58:16;100988.88;;;6.37;100.00
68594;BME280;55563;52.416;13.548;2023-03-19T05:00:18;100996.97;;;6.47;100.00
68594;BME280;55563;52.416;13.548;2023-03-19T05:02:20;100997.06;;;6.52;100.00
68594;BME280;55563;52.416;13.548;2023-03-19T05:04:23;101007.28;;;6.54;100.00
68594;BME280;55563;52.416;13.548;2023-03-19T05:06:25;100994.56;;;6.46;100.00
68594;BME280;55563;52.416;13.548;2023-03-19T05:08:27;100996.03;;;6.42;100.00
68594;BME280;55563;52.416;13.548;2023-03-19T05:10:28;100992.84;;;6.40;100.00
68594;BME280;55563;52.416;13.548;2023-03-19T05:12:29;100991.22;;;6.39;100.00
68594;BME280;55563;52.416;13.548;2023-03-19T05:14:56;100991.69;;;6.36;100.00
68594;BME280;55563;52.416;13.548;2023-03-19T05:17:09;100979.22;;;6.38;100.00
68594;BME280;55563;52.416;13.548;2023-03-19T05:19:30;100972.75;;;6.40;100.00
68594;BME280;55563;52.416;13.548;2023-03-19T05:21:31;100976.72;;;6.43;100.00
68594;BME280;55563;52.416;13.548;2023-03-19T05:23:32;100976.72;;;6.43;100.00
68594;BME280;55563;52.416;13.548;2023-03-19T05:25:38;100970.72;;;6.42;100.00
68594;BME280;55563;52.416;13.548;2023-03-19T05:27:43;100970.81;;;6.36;100.00
68594;BME280;55563;52.416;13.548;2023-03-19T05:29:50;100973.34;;;6.42;100.00
68594;BME280;55563;52.416;13.548;2023-03-19T05:31:57;100971.38;;;6.38;100.00
68594;BME280;55563;52.416;13.548;2023-03-19T05:33:59;100980.38;;;6.42;100.00
68594;BME280;55563;52.416;13.548;2023-03-19T05:36:03;100968.47;;;6.46;100.00
68594;BME280;55563;52.416;13.548;2023-03-19T05:38:18;100979.03;;;6.51;100.00
68594;BME280;55563;52.416;13.548;2023-03-19T05:40:26;100979.81;;;6.51;100.00
68594;BME280;55563;52.416;13.548;2023-03-19T05:42:27;100973.56;;;6.52;100.00
68594;BME280;55563;52.416;13.548;2023-03-19T05:44:31;100973.00;;;6.50;100.00
68594;BME280;55563;52.416;13.548;2023-03-19T05:46:52;100979.16;;;6.56;100.00
68594;BME280;55563;52.416;13.548;2023-03-19T05:48:55;100975.06;;;6.60;100.00
68594;BME280;55563;52.416;13.548;2023-03-19T05:50:55;100976.53;;;6.56;100.00
68594;BME280;55563;52.416;13.548;2023-03-19T05:52:57;100978.69;;;6.59;100.00
68594;BME280;55563;52.416;13.548;2023-03-19T05:54:57;100977.81;;;6.65;100.00
68594;BME280;55563;52.416;13.548;2023-03-19T05:57:17;100982.59;;;6.68;100.00
68594;BME280;55563;52.416;13.548;2023-03-19T05:59:23;100976.13;;;6.71;100.00
68594;BME280;55563;52.416;13.548;2023-03-19T06:01:37;100983.28;;;6.75;100.00
68594;BME280;55563;52.416;13.548;2023-03-19T06:03:37;100991.59;;;6.84;100.00
68594;BME280;55563;52.416;13.548;2023-03-19T06:05:42;100981.69;;;6.86;100.00
68594;BME280;55563;52.416;13.548;2023-03-19T06:07:53;100987.16;;;6.84;100.00
68594;BME280;55563;52.416;13.548;2023-03-19T06:10:02;100979.44;;;6.89;100.00
68594;BME280;55563;52.416;13.548;2023-03-19T06:12:04;100977.19;;;6.93;100.00
68594;BME280;55563;52.416;13.548;2023-03-19T06:14:25;100978.19;;;6.92;100.00
68594;BME280;55563;52.416;13.548;2023-03-19T06:16:45;100974.00;;;7.03;100.00
68594;BME280;55563;52.416;13.548;2023-03-19T06:18:47;100982.97;;;7.07;100.00
68594;BME280;55563;52.416;13.548;2023-03-19T06:20:49;100980.59;;;7.17;100.00
68594;BME280;55563;52.416;13.548;2023-03-19T06:22:51;100982.09;;;7.48;100.00
68594;BME280;55563;52.416;13.548;2023-03-19T06:24:52;100987.09;;;7.26;100.00
68594;BME280;55563;52.416;13.548;2023-03-19T06:26:54;100976.63;;;7.26;100.00
68594;BME280;55563;52.416;13.548;2023-03-19T06:28:54;100979.81;;;7.39;100.00
68594;BME280;55563;52.416;13.548;2023-03-19T06:30:55;100976.97;;;7.53;100.00
68594;BME280;55563;52.416;13.548;2023-03-19T06:33:16;100981.63;;;7.62;100.00
68594;BME280;55563;52.416;13.548;2023-03-19T06:35:17;100978.84;;;7.80;100.00
68594;BME280;55563;52.416;13.548;2023-03-19T06:37:21;100980.78;;;7.85;100.00
68594;BME280;55563;52.416;13.548;2023-03-19T06:39:22;100989.47;;;8.02;100.00
68594;BME280;55563;52.416;13.548;2023-03-19T06:41:22;100983.59;;;7.95;100.00
68594;BME280;55563;52.416;13.548;2023-03-19T06:43:25;100990.34;;;8.19;100.00
68594;BME280;55563;52.416;13.548;2023-03-19T06:45:25;100991.28;;;8.02;100.00
68594;BME280;55563;52.416;13.548;2023-03-19T06:47:26;100992.56;;;7.87;100.00
68594;BME280;55563;52.416;13.548;2023-03-19T06:49:27;100993.81;;;7.97;100.00
68594;BME280;55563;52.416;13.548;2023-03-19T06:51:28;100999.41;;;8.00;100.00
68594;BME280;55563;52.416;13.548;2023-03-19T06:53:28;101010.09;;;7.99;100.00
68594;BME280;55563;52.416;13.548;2023-03-19T06:55:29;101005.19;;;8.02;100.00
68594;BME280;55563;52.416;13.548;2023-03-19T06:57:30;101013.44;;;8.11;100.00
68594;BME280;55563;52.416;13.548;2023-03-19T06:59:31;101023.97;;;7.99;100.00
68594;BME280;55563;52.416;13.548;2023-03-19T07:01:31;101029.44;;;7.98;100.00
68594;BME280;55563;52.416;13.548;2023-03-19T07:03:32;101031.81;;;7.99;100.00
68594;BME280;55563;52.416;13.548;2023-03-19T07:05:32;101040.13;;;7.96;100.00
68594;BME280;55563;52.416;13.548;2023-03-19T07:07:33;101055.22;;;8.06;100.00
68594;BME280;55563;52.416;13.548;2023-03-19T07:09:34;101054.31;;;8.12;100.00
68594;BME280;55563;52.416;13.548;2023-03-19T07:11:34;101063.19;;;8.22;100.00
68594;BME280;55563;52.416;13.548;2023-03-19T07:13:35;101061.03;;;8.19;100.00
68594;BME280;55563;52.416;13.548;2023-03-19T07:15:37;101064.06;;;8.28;100.00
68594;BME280;55563;52.416;13.548;2023-03-19T07:17:38;101077.16;;;8.40;100.00
68594;BME280;55563;52.416;13.548;2023-03-19T07:19:38;101091.72;;;8.47;100.00
68594;BME280;55563;52.416;13.548;2023-03-19T07:21:39;101107.56;;;8.41;100.00
68594;BME280;55563;52.416;13.548;2023-03-19T07:23:40;101121.13;;;8.38;100.00
68594;BME280;55563;52.416;13.548;2023-03-19T07:25:41;101135.59;;;8.28;100.00
68594;BME280;55563;52.416;13.548;2023-03-19T07:27:41;101124.53;;;8.26;100.00
68594;BME280;55563;52.416;13.548;2023-03-19T07:29:42;101127.38;;;8.37;100.00
68594;BME280;55563;52.416;13.548;2023-03-19T07:31:43;101106.75;;;8.40;100.00
68594;BME280;55563;52.416;13.548;2023-03-19T07:33:43;101107.13;;;8.44;100.00
68594;BME280;55563;52.416;13.548;2023-03-19T07:35:44;101106.63;;;8.47;100.00
68594;BME280;55563;52.416;13.548;2023-03-19T07:37:45;101109.66;;;8.67;100.00
68594;BME280;55563;52.416;13.548;2023-03-19T07:39:46;101101.22;;;8.65;100.00
68594;BME280;55563;52.416;13.548;2023-03-19T07:41:46;101098.69;;;8.70;100.00
68594;BME280;55563;52.416;13.548;2023-03-19T07:43:49;101093.50;;;8.87;100.00
68594;BME280;55563;52.416;13.548;2023-03-19T07:45:50;101091.06;;;8.97;100.00
68594;BME280;55563;52.416;13.548;2023-03-19T07:47:50;101073.34;;;9.04;100.00
68594;BME280;55563;52.416;13.548;2023-03-19T07:49:51;101075.25;;;9.08;100.00
68594;BME280;55563;52.416;13.548;2023-03-19T07:51:52;101081.16;;;9.32;100.00
68594;BME280;55563;52.416;13.548;2023-03-19T07:53:53;101080.81;;;9.62;100.00
68594;BME280;55563;52.416;13.548;2023-03-19T07:55:53;101072.88;;;9.95;100.00
68594;BME280;55563;52.416;13.548;2023-03-19T07:57:54;101071.53;;;10.15;100.00
68594;BME280;55563;52.416;13.548;2023-03-19T07:59:55;101060.44;;;10.29;100.00
68594;BME280;55563;52.416;13.548;2023-03-19T08:01:56;101058.47;;;10.41;100.00
68594;BME280;55563;52.416;13.548;2023-03-19T08:03:56;101060.22;;;10.58;100.00
68594;BME280;55563;52.416;13.548;2023-03-19T08:05:57;101047.47;;;10.71;100.00
68594;BME280;55563;52.416;13.548;2023-03-19T08:07:58;101046.97;;;10.74;100.00
68594;BME280;55563;52.416;13.548;2023-03-19T08:09:59;101049.97;;;10.83;100.00
68594;BME280;55563;52.416;13.548;2023-03-19T08:12:00;101053.16;;;10.90;100.00
68594;BME280;55563;52.416;13.548;2023-03-19T08:14:01;101056.00;;;11.15;100.00
68594;BME280;55563;52.416;13.548;2023-03-19T08:16:02;101066.19;;;11.38;100.00
68594;BME280;55563;52.416;13.548;2023-03-19T08:18:03;101068.09;;;11.48;100.00
68594;BME280;55563;52.416;13.548;2023-03-19T08:20:08;101068.28;;;11.36;100.00
68594;BME280;55563;52.416;13.548;2023-03-19T08:22:09;101066.06;;;11.23;100.00
68594;BME280;55563;52.416;13.548;2023-03-19T08:24:10;101064.00;;;11.25;100.00
68594;BME280;55563;52.416;13.548;2023-03-19T08:26:11;101064.34;;;11.02;100.00
68594;BME280;55563;52.416;13.548;2023-03-19T08:28:11;101058.66;;;11.15;100.00
68594;BME280;55563;52.416;13.548;2023-03-19T08:30:12;101070.69;;;11.43;100.00
68594;BME280;55563;52.416;13.548;2023-03-19T08:32:13;101065.16;;;11.40;100.00
68594;BME280;55563;52.416;13.548;2023-03-19T08:34:14;101071.03;;;11.57;100.00
68594;BME280;55563;52.416;13.548;2023-03-19T08:36:14;101080.66;;;11.73;100.00
68594;BME280;55563;52.416;13.548;2023-03-19T08:38:15;101110.03;;;11.28;100.00
68594;BME280;55563;52.416;13.548;2023-03-19T08:40:16;101132.13;;;11.22;100.00
68594;BME280;55563;52.416;13.548;2023-03-19T08:42:18;101154.00;;;11.01;100.00
68594;BME280;55563;52.416;13.548;2023-03-19T08:44:19;101158.81;;;10.82;100.00
68594;BME280;55563;52.416;13.548;2023-03-19T08:46:20;101162.47;;;10.81;100.00
68594;BME280;55563;52.416;13.548;2023-03-19T08:48:21;101150.44;;;10.63;100.00
68594;BME280;55563;52.416;13.548;2023-03-19T08:50:21;101147.75;;;10.58;100.00
68594;BME280;55563;52.416;13.548;2023-03-19T08:52:22;101163.84;;;10.62;100.00
68594;BME280;55563;52.416;13.548;2023-03-19T08:54:23;101163.09;;;10.66;100.00
68594;BME280;55563;52.416;13.548;2023-03-19T08:56:23;101167.97;;;10.79;100.00
68594;BME280;55563;52.416;13.548;2023-03-19T08:58:25;101168.19;;;10.73;100.00
68594;BME280;55563;52.416;13.548;2023-03-19T09:00:26;101170.38;;;10.59;100.00
68594;BME280;55563;52.416;13.548;2023-03-19T09:02:27;101162.84;;;10.46;100.00
68594;BME280;55563;52.416;13.548;2023-03-19T09:04:28;101158.75;;;10.33;100.00
68594;BME280;55563;52.416;13.548;2023-03-19T09:06:29;101161.75;;;10.20;100.00
68594;BME280;55563;52.416;13.548;2023-03-19T09:08:30;101156.72;;;10.19;100.00
68594;BME280;55563;52.416;13.548;2023-03-19T09:10:32;101142.69;;;10.13;100.00
68594;BME280;55563;52.416;13.548;2023-03-19T09:12:33;101135.66;;;9.97;100.00
68594;BME280;55563;52.416;13.548;2023-03-19T09:14:34;101116.03;;;9.66;100.00
68594;BME280;55563;52.416;13.548;2023-03-19T09:16:35;101124.41;;;9.63;100.00
68594;BME280;55563;52.416;13.548;2023-03-19T09:18:35;101113.59;;;9.43;100.00
68594;BME280;55563;52.416;13.548;2023-03-19T09:20:36;101103.97;;;9.48;100.00
68594;BME280;55563;52.416;13.548;2023-03-19T09:22:37;101095.78;;;9.28;100.00
68594;BME280;55563;52.416;13.548;2023-03-19T09:24:38;101070.19;;;9.18;100.00
68594;BME280;55563;52.416;13.548;2023-03-19T09:26:38;101060.94;;;9.16;100.00
68594;BME280;55563;52.416;13.548;2023-03-19T09:28:39;101052.84;;;9.01;100.00
68594;BME280;55563;52.416;13.548;2023-03-19T09:30:40;101054.75;;;9.05;100.00
68594;BME280;55563;52.416;13.548;2023-03-19T09:32:41;101060.72;;;9.01;100.00
68594;BME280;55563;52.416;13.548;2023-03-19T09:34:41;101071.28;;;9.06;100.00
68594;BME280;55563;52.416;13.548;2023-03-19T09:36:42;101070.31;;;8.95;100.00
68594;BME280;55563;52.416;13.548;2023-03-19T09:38:43;101072.94;;;9.12;100.00
68594;BME280;55563;52.416;13.548;2023-03-19T09:40:46;101071.84;;;9.08;100.00
68594;BME280;55563;52.416;13.548;2023-03-19T09:43:59;101077.00;;;9.03;100.00
68594;BME280;55563;52.416;13.548;2023-03-19T09:45:17;101081.34;;;8.97;100.00
68594;BME280;55563;52.416;13.548;2023-03-19T09:47:35;101081.44;;;8.86;100.00
68594;BME280;55563;52.416;13.548;2023-03-19T09:49:42;101083.19;;;8.97;100.00
68594;BME280;55563;52.416;13.548;2023-03-19T09:54:35;101094.81;;;9.17;100.00
68594;BME280;55563;52.416;13.548;2023-03-19T09:56:38;101086.72;;;9.19;100.00
68594;BME280;55563;52.416;13.548;2023-03-19T09:58:39;101076.69;;;9.16;100.00
68594;BME280;55563;52.416;13.548;2023-03-19T10:00:40;101083.03;;;9.03;100.00
68594;BME280;55563;52.416;13.548;2023-03-19T10:02:42;101076.94;;;9.14;100.00
68594;BME280;55563;52.416;13.548;2023-03-19T10:07:27;101083.53;;;9.17;100.00
68594;BME280;55563;52.416;13.548;2023-03-19T10:09:44;101072.56;;;9.20;100.00
68594;BME280;55563;52.416;13.548;2023-03-19T10:12:15;101064.94;;;9.18;100.00
68594;BME280;55563;52.416;13.548;2023-03-19T10:17:01;101065.81;;;9.24;100.00
68594;BME280;55563;52.416;13.548;2023-03-19T10:19:04;101064.38;;;9.33;100.00
68594;BME280;55563;52.416;13.548;2023-03-19T10:21:14;101072.22;;;9.50;100.00
68594;BME280;55563;52.416;13.548;2023-03-19T10:23:46;101075.78;;;9.60;100.00
68594;BME280;55563;52.416;13.548;2023-03-19T10:25:53;101076.50;;;9.73;100.00
68594;BME280;55563;52.416;13.548;2023-03-19T10:27:59;101078.78;;;9.86;100.00
68594;BME280;55563;52.416;13.548;2023-03-19T10:30:00;101080.44;;;9.92;100.00
68594;BME280;55563;52.416;13.548;2023-03-19T10:32:31;101083.38;;;9.95;100.00
68594;BME280;55563;52.416;13.548;2023-03-19T10:34:42;101081.97;;;10.10;100.00
68594;BME280;55563;52.416;13.548;2023-03-19T10:36:43;101078.50;;;10.04;100.00
68594;BME280;55563;52.416;13.548;2023-03-19T10:38:43;101078.56;;;10.09;100.00
68594;BME280;55563;52.416;13.548;2023-03-19T10:43:18;101069.81;;;10.20;100.00
68594;BME280;55563;52.416;13.548;2023-03-19T10:45:31;101067.22;;;10.25;100.00
68594;BME280;55563;52.416;13.548;2023-03-19T10:47:37;101064.03;;;10.45;100.00
68594;BME280;55563;52.416;13.548;2023-03-19T10:49:39;101060.28;;;10.63;100.00
68594;BME280;55563;52.416;13.548;2023-03-19T10:51:43;101057.38;;;10.59;100.00